Time;durP1;ratioP1;P1;durP2;ratioP2;P2;SDS_P1;SDS_P2;PMS_P1;PMS_P2;Temp;Humidity;BMP_temperature;BMP_pressure;BME280_temperature;BME280_humidity;BME280_pressure;Samples;Min_cycle;Max_cycle;Signal;HPM_P1;HPM_P2
2022/12/01 00:01:09;;;;;;;129.13;47.55;;;3.90;99.90;;;;;;5022704;28;20119;-73
2022/12/01 00:03:35;;;;;;;125.65;47.40;;;3.90;99.90;;;;;;5025535;28;20429;-73
2022/12/01 00:06:03;;;;;;;118.75;46.85;;;3.90;99.90;;;;;;5030061;28;20162;-73
2022/12/01 00:08:29;;;;;;;125.63;46.40;;;3.80;99.90;;;;;;5030959;28;20040;-73
2022/12/01 00:10:54;;;;;;;109.53;47.80;;;3.90;99.90;;;;;;5019288;28;20370;-72
2022/12/01 00:13:20;;;;;;;123.72;46.17;;;3.90;99.90;;;;;;5017389;28;20415;-73
2022/12/01 00:15:46;;;;;;;111.35;44.95;;;3.90;99.90;;;;;;5030384;28;20048;-72
2022/12/01 00:18:11;;;;;;;115.28;47.10;;;3.80;99.90;;;;;;5014753;28;20065;-73
2022/12/01 00:20:38;;;;;;;119.55;46.45;;;3.80;99.90;;;;;;5025500;28;20029;-72
2022/12/01 00:23:04;;;;;;;124.60;46.67;;;3.80;99.90;;;;;;5023958;28;20136;-73
2022/12/01 00:25:31;;;;;;;116.07;46.65;;;3.80;99.90;;;;;;5027013;28;20132;-72
2022/12/01 00:27:57;;;;;;;118.90;45.40;;;3.90;99.90;;;;;;5034063;28;20123;-72
2022/12/01 00:30:23;;;;;;;113.18;45.65;;;3.80;99.90;;;;;;5028573;28;20821;-74
2022/12/01 00:32:48;;;;;;;122.45;47.30;;;3.80;99.90;;;;;;5019335;28;20033;-72
2022/12/01 00:35:15;;;;;;;104.88;44.50;;;3.80;99.90;;;;;;5022397;28;20049;-72
2022/12/01 00:37:41;;;;;;;114.13;45.72;;;3.80;99.90;;;;;;5039280;28;20024;-73
2022/12/01 00:40:07;;;;;;;119.85;46.78;;;3.80;99.90;;;;;;5021773;28;20322;-73
2022/12/01 00:42:33;;;;;;;120.30;46.80;;;3.80;99.90;;;;;;5029171;28;20032;-72
2022/12/01 00:44:58;;;;;;;132.00;47.72;;;3.80;99.90;;;;;;5024112;28;20140;-72
2022/12/01 00:47:24;;;;;;;122.00;47.28;;;3.80;99.90;;;;;;5028571;28;20036;-72
2022/12/01 00:49:51;;;;;;;110.88;45.67;;;3.80;99.90;;;;;;5019356;28;20041;-72
2022/12/01 00:52:17;;;;;;;110.55;45.13;;;3.80;99.90;;;;;;5021415;28;20070;-73
2022/12/01 00:54:42;;;;;;;120.78;46.05;;;3.80;99.90;;;;;;5023400;28;20474;-72
2022/12/01 00:57:08;;;;;;;120.22;47.05;;;3.80;99.90;;;;;;5022499;28;20145;-73
2022/12/01 00:59:34;;;;;;;112.22;46.53;;;3.80;99.90;;;;;;5028808;28;20445;-72
2022/12/01 01:02:01;;;;;;;117.15;46.20;;;3.80;99.90;;;;;;5034865;28;20028;-73
2022/12/01 01:04:29;;;;;;;124.38;47.35;;;3.80;99.90;;;;;;5028560;28;20223;-72
2022/12/01 01:06:55;;;;;;;123.03;47.47;;;3.80;99.90;;;;;;5019571;28;20022;-72
2022/12/01 01:09:20;;;;;;;122.30;48.50;;;3.80;99.90;;;;;;5033018;28;20045;-72
2022/12/01 01:11:46;;;;;;;111.82;45.20;;;3.80;99.90;;;;;;5039028;28;20033;-73
2022/12/01 01:14:11;;;;;;;116.85;48.45;;;3.80;99.90;;;;;;5041352;28;20318;-73
2022/12/01 01:16:37;;;;;;;115.05;46.40;;;3.80;99.90;;;;;;5038749;28;20036;-73
2022/12/01 01:19:02;;;;;;;109.50;45.30;;;3.80;99.90;;;;;;5038606;28;20399;-73
2022/12/01 01:21:28;;;;;;;126.38;47.03;;;3.80;99.90;;;;;;5035239;28;20025;-73
2022/12/01 01:23:54;;;;;;;108.90;43.97;;;3.70;99.90;;;;;;5029952;28;20048;-73
2022/12/01 01:26:25;;;;;;;116.90;46.10;;;3.80;99.90;;;;;;5028975;28;20071;-73
2022/12/01 01:28:51;;;;;;;;;;;3.80;99.90;;;;;;5024990;28;20091;-72
2022/12/01 01:31:19;;;;;;;105.82;43.38;;;3.70;99.90;;;;;;5017775;28;20246;-73
2022/12/01 01:33:45;;;;;;;119.70;45.40;;;3.70;99.90;;;;;;5022091;28;20190;-73
2022/12/01 01:36:11;;;;;;;125.28;45.10;;;3.70;99.90;;;;;;5030655;28;20438;-73
2022/12/01 01:38:37;;;;;;;118.68;43.97;;;3.70;99.90;;;;;;5024040;28;20098;-73
2022/12/01 01:41:04;;;;;;;120.03;46.55;;;3.70;99.90;;;;;;5028349;28;20029;-72
2022/12/01 01:43:48;;;;;;;109.68;45.13;;;3.60;99.90;;;;;;5028212;28;20128;-73
2022/12/01 01:46:19;;;;;;;118.78;46.17;;;3.60;99.90;;;;;;5030311;28;20022;-73
2022/12/01 01:49:10;;;;;;;110.10;44.70;;;3.60;99.90;;;;;;5029766;28;20401;-73
2022/12/01 01:51:43;;;;;;;112.88;45.08;;;3.70;99.90;;;;;;5025883;28;20059;-73
2022/12/01 01:54:18;;;;;;;104.22;45.22;;;3.60;99.90;;;;;;5023570;28;20124;-73
2022/12/01 01:56:44;;;;;;;111.97;45.08;;;3.60;99.90;;;;;;5024711;28;20030;-73
2022/12/01 01:59:13;;;;;;;106.05;41.30;;;3.60;99.90;;;;;;5031804;28;20471;-72
2022/12/01 02:01:39;;;;;;;106.95;46.17;;;3.60;99.90;;;;;;5024368;28;20041;-73
2022/12/01 02:04:06;;;;;;;116.97;44.50;;;3.60;99.90;;;;;;5025210;28;20328;-73
2022/12/01 02:06:32;;;;;;;111.55;44.88;;;3.60;99.90;;;;;;5041069;28;20093;-72
2022/12/01 02:08:57;;;;;;;113.90;44.83;;;3.60;99.90;;;;;;5024419;28;20036;-73
2022/12/01 02:12:10;;;;;;;116.28;45.17;;;3.60;99.90;;;;;;5030241;28;20422;-73
2022/12/01 02:14:59;;;;;;;106.75;44.38;;;3.60;99.90;;;;;;5029594;28;20113;-73
2022/12/01 02:17:31;;;;;;;107.35;44.03;;;3.60;99.90;;;;;;5016593;28;20033;-73
2022/12/01 02:20:34;;;;;;;109.63;45.03;;;3.60;99.90;;;;;;5041838;28;20137;-74
2022/12/01 02:23:36;;;;;;;109.05;44.63;;;3.60;99.90;;;;;;5025618;28;20045;-74
2022/12/01 02:26:41;;;;;;;109.60;43.83;;;3.60;99.90;;;;;;5022762;28;20030;-73
2022/12/01 02:29:37;;;;;;;105.20;43.60;;;3.60;99.90;;;;;;5027233;28;20029;-73
2022/12/01 02:32:23;;;;;;;102.53;42.25;;;3.60;99.90;;;;;;5025484;28;20040;-73
2022/12/01 02:35:22;;;;;;;108.00;42.80;;;3.50;99.90;;;;;;5020808;28;20073;-73
2022/12/01 02:37:57;;;;;;;104.22;43.50;;;3.50;99.90;;;;;;5025004;28;20208;-73
2022/12/01 02:40:38;;;;;;;121.65;46.53;;;3.50;99.90;;;;;;5023246;28;20450;-73
2022/12/01 02:43:09;;;;;;;114.90;44.00;;;3.60;99.90;;;;;;5030155;28;20368;-73
2022/12/01 02:45:54;;;;;;;108.93;43.70;;;3.50;99.90;;;;;;5021462;28;20044;-73
2022/12/01 02:48:29;;;;;;;93.07;41.15;;;3.50;99.90;;;;;;5012905;28;20034;-73
2022/12/01 02:50:59;;;;;;;103.00;43.15;;;3.50;99.90;;;;;;5031824;28;20135;-73
2022/12/01 02:53:25;;;;;;;102.95;44.90;;;3.50;99.90;;;;;;5028073;28;20105;-73
2022/12/01 02:55:53;;;;;;;112.00;43.70;;;3.50;99.90;;;;;;5021098;28;20485;-73
2022/12/01 02:58:19;;;;;;;109.53;44.38;;;3.50;99.90;;;;;;5020225;28;20098;-73
2022/12/01 03:01:07;;;;;;;117.40;45.08;;;3.50;99.90;;;;;;5016995;28;20151;-72
2022/12/01 03:03:32;;;;;;;106.82;44.17;;;3.50;99.90;;;;;;5032536;28;20057;-72
2022/12/01 03:06:12;;;;;;;120.50;43.30;;;3.50;99.90;;;;;;5027146;28;20033;-73
2022/12/01 03:08:51;;;;;;;100.13;41.88;;;3.50;99.90;;;;;;5026151;28;20089;-72
2022/12/01 03:11:31;;;;;;;109.72;44.38;;;3.50;99.90;;;;;;5019956;28;20037;-73
2022/12/01 03:14:19;;;;;;;114.15;44.45;;;3.50;99.90;;;;;;5022012;28;20614;-72
2022/12/01 03:16:57;;;;;;;108.28;44.00;;;3.50;99.90;;;;;;5038180;28;20045;-72
2022/12/01 03:19:39;;;;;;;108.28;42.60;;;3.50;99.90;;;;;;5031738;28;20045;-72
2022/12/01 03:22:13;;;;;;;101.80;41.83;;;3.50;99.90;;;;;;5025435;28;20053;-73
2022/12/01 03:24:42;;;;;;;101.32;42.78;;;3.50;99.90;;;;;;5026997;28;20120;-72
2022/12/01 03:27:10;;;;;;;107.32;42.20;;;3.50;99.90;;;;;;5024714;28;20393;-73
2022/12/01 03:29:42;;;;;;;116.13;45.28;;;3.60;99.90;;;;;;5022734;28;20060;-73
2022/12/01 03:32:31;;;;;;;105.35;42.92;;;3.50;99.90;;;;;;5028649;28;20183;-73
2022/12/01 03:34:57;;;;;;;111.47;44.90;;;3.50;99.90;;;;;;5018488;28;20041;-73
2022/12/01 03:37:35;;;;;;;102.00;43.80;;;3.50;99.90;;;;;;5029910;28;20111;-73
2022/12/01 03:40:05;;;;;;;109.80;42.38;;;3.50;99.90;;;;;;5029991;28;20216;-73
2022/12/01 03:42:40;;;;;;;102.32;43.30;;;3.50;99.90;;;;;;5025450;28;20025;-73
2022/12/01 03:45:10;;;;;;;115.78;44.78;;;3.50;99.90;;;;;;5021149;28;20052;-73
2022/12/01 03:47:38;;;;;;;111.65;43.40;;;3.50;99.90;;;;;;5023281;28;20070;-74
2022/12/01 03:50:06;;;;;;;102.10;44.70;;;3.50;99.90;;;;;;5030051;28;20037;-73
2022/12/01 03:52:56;;;;;;;102.35;44.75;;;3.50;99.90;;;;;;5034227;28;20433;-72
2022/12/01 03:55:27;;;;;;;111.47;44.15;;;3.50;99.90;;;;;;5020443;28;20113;-73
2022/12/01 03:58:00;;;;;;;105.75;43.72;;;3.40;99.90;;;;;;5030612;28;20091;-74
2022/12/01 04:00:25;;;;;;;110.95;44.05;;;3.40;99.90;;;;;;5025515;28;20119;-72
2022/12/01 04:02:56;;;;;;;109.68;43.50;;;3.40;99.90;;;;;;5033294;28;20457;-72
2022/12/01 04:05:21;;;;;;;113.80;46.05;;;3.40;99.90;;;;;;5027064;28;20093;-72
2022/12/01 04:07:47;;;;;;;109.43;43.17;;;3.40;99.90;;;;;;5036057;28;20449;-73
2022/12/01 04:10:12;;;;;;;108.43;43.28;;;3.40;99.90;;;;;;5021382;28;20037;-72
2022/12/01 04:12:37;;;;;;;105.22;42.88;;;3.40;99.90;;;;;;5025674;28;20052;-72
2022/12/01 04:15:11;;;;;;;109.53;45.20;;;3.40;99.90;;;;;;5034752;28;20124;-74
2022/12/01 04:17:37;;;;;;;110.57;43.33;;;3.40;99.90;;;;;;5014137;28;20414;-73
2022/12/01 04:20:05;;;;;;;103.35;42.20;;;3.40;99.90;;;;;;5020924;28;20021;-73
2022/12/01 04:22:31;;;;;;;103.22;43.70;;;3.40;99.90;;;;;;5021821;28;20054;-72
2022/12/01 04:24:57;;;;;;;99.93;41.70;;;3.30;99.90;;;;;;5023699;28;20104;-72
2022/12/01 04:27:22;;;;;;;103.15;43.72;;;3.30;99.90;;;;;;5028575;28;20108;-72
2022/12/01 04:29:48;;;;;;;95.82;41.35;;;3.30;99.90;;;;;;5024817;28;20067;-73
2022/12/01 04:32:13;;;;;;;94.78;42.58;;;3.30;99.90;;;;;;5020148;28;20033;-72
2022/12/01 04:34:39;;;;;;;97.15;42.00;;;3.30;99.90;;;;;;5021445;28;20034;-72
2022/12/01 04:37:07;;;;;;;101.68;40.92;;;3.30;99.90;;;;;;5019805;28;20021;-73
2022/12/01 04:39:33;;;;;;;97.88;43.08;;;3.30;99.90;;;;;;5027477;28;20045;-72
2022/12/01 04:41:59;;;;;;;99.07;42.00;;;3.30;99.80;;;;;;5022421;28;20028;-72
2022/12/01 04:44:24;;;;;;;99.72;41.22;;;3.20;99.80;;;;;;5022062;28;20017;-72
2022/12/01 04:46:51;;;;;;;86.80;39.17;;;3.20;99.80;;;;;;5014238;28;20026;-72
2022/12/01 04:49:17;;;;;;;94.35;42.05;;;3.20;99.80;;;;;;5033407;28;20430;-73
2022/12/01 04:51:43;;;;;;;97.75;43.83;;;3.20;99.80;;;;;;5025297;28;20442;-72
2022/12/01 04:54:09;;;;;;;94.63;39.83;;;3.20;99.80;;;;;;5016773;28;20137;-73
2022/12/01 04:56:34;;;;;;;92.75;40.53;;;3.20;99.70;;;;;;5024335;28;20045;-74
2022/12/01 04:59:00;;;;;;;94.32;40.40;;;3.20;99.70;;;;;;5020429;28;20072;-72
2022/12/01 05:01:25;;;;;;;98.40;42.40;;;3.10;99.70;;;;;;5021776;28;20327;-72
2022/12/01 05:03:51;;;;;;;90.82;39.72;;;3.20;99.70;;;;;;5030626;28;20080;-74
2022/12/01 05:06:25;;;;;;;94.70;42.50;;;3.10;99.60;;;;;;5021555;28;20212;-74
2022/12/01 05:08:54;;;;;;;95.15;41.08;;;3.10;99.60;;;;;;5022931;28;20022;-73
2022/12/01 05:11:19;;;;;;;90.55;39.38;;;3.10;99.60;;;;;;5031183;28;20033;-72
2022/12/01 05:13:47;;;;;;;88.57;38.90;;;3.20;99.60;;;;;;5020874;28;20049;-72
2022/12/01 05:16:18;;;;;;;96.25;40.58;;;3.10;99.60;;;;;;5030713;28;20021;-72
2022/12/01 05:18:49;;;;;;;103.72;41.00;;;3.20;99.60;;;;;;5031774;28;20132;-72
2022/12/01 05:21:14;;;;;;;90.85;38.90;;;3.20;99.60;;;;;;5026589;28;20053;-73
2022/12/01 05:23:40;;;;;;;100.05;40.88;;;3.20;99.60;;;;;;5020503;28;20087;-72
2022/12/01 05:26:08;;;;;;;98.43;42.60;;;3.20;99.60;;;;;;5026489;28;20128;-72
2022/12/01 05:28:34;;;;;;;98.03;41.05;;;3.20;99.60;;;;;;5016984;28;20319;-76
2022/12/01 05:31:00;;;;;;;107.95;41.65;;;3.20;99.60;;;;;;5025887;28;20369;-74
2022/12/01 05:33:27;;;;;;;112.05;42.72;;;3.20;99.60;;;;;;5026226;28;20033;-75
2022/12/01 05:35:53;;;;;;;91.00;43.47;;;3.20;99.60;;;;;;5023633;28;20470;-75
2022/12/01 05:38:18;;;;;;;103.97;42.22;;;3.20;99.60;;;;;;5023302;28;20051;-75
2022/12/01 05:40:52;;;;;;;100.10;41.08;;;3.20;99.60;;;;;;5025107;28;20021;-75
2022/12/01 05:43:20;;;;;;;100.30;42.92;;;3.20;99.60;;;;;;5022737;28;20104;-76
2022/12/01 05:45:45;;;;;;;101.07;41.72;;;3.20;99.60;;;;;;5022616;28;20026;-75
2022/12/01 05:48:11;;;;;;;92.40;40.55;;;3.30;99.60;;;;;;5024320;28;20303;-75
2022/12/01 05:50:38;;;;;;;98.35;42.13;;;3.20;99.60;;;;;;5021624;28;20136;-75
2022/12/01 05:53:04;;;;;;;92.97;40.97;;;3.20;99.60;;;;;;5022704;28;20029;-75
2022/12/01 05:55:31;;;;;;;106.18;42.85;;;3.30;99.70;;;;;;5029481;28;20036;-75
2022/12/01 05:57:56;;;;;;;95.78;39.72;;;3.20;99.60;;;;;;5016579;28;20360;-75
2022/12/01 06:00:22;;;;;;;103.28;40.65;;;3.20;99.60;;;;;;5028832;28;20037;-73
2022/12/01 06:02:47;;;;;;;100.35;41.10;;;3.20;99.70;;;;;;5028008;28;20476;-74
2022/12/01 06:05:13;;;;;;;101.03;41.67;;;3.20;99.60;;;;;;5030260;28;20036;-73
2022/12/01 06:07:39;;;;;;;94.57;41.22;;;3.20;99.60;;;;;;5029520;28;20028;-73
2022/12/01 06:10:05;;;;;;;96.47;40.03;;;3.10;99.60;;;;;;5023917;28;20038;-74
2022/12/01 06:12:31;;;;;;;102.85;43.30;;;3.10;99.60;;;;;;5022255;28;20038;-75
2022/12/01 06:14:56;;;;;;;105.18;41.50;;;3.10;99.60;;;;;;5033709;28;20405;-75
2022/12/01 06:17:22;;;;;;;100.85;40.97;;;3.10;99.60;;;;;;5022555;28;20188;-74
2022/12/01 06:19:47;;;;;;;105.18;42.70;;;3.10;99.60;;;;;;5015610;28;20103;-75
2022/12/01 06:22:13;;;;;;;107.22;42.40;;;3.10;99.60;;;;;;5015627;28;20135;-75
2022/12/01 06:24:38;;;;;;;106.32;41.15;;;3.10;99.50;;;;;;5020999;28;20055;-74
2022/12/01 06:27:04;;;;;;;102.60;42.63;;;3.10;99.60;;;;;;5025539;28;20116;-75
2022/12/01 06:29:29;;;;;;;97.40;39.58;;;3.10;99.60;;;;;;5024163;28;20105;-75
2022/12/01 06:31:55;;;;;;;107.93;40.95;;;3.10;99.60;;;;;;5020904;28;20041;-79
2022/12/01 06:34:20;;;;;;;109.20;43.80;;;3.10;99.60;;;;;;5025173;28;20036;-77
2022/12/01 06:36:46;;;;;;;97.53;41.15;;;3.10;99.50;;;;;;5020615;28;20022;-78
2022/12/01 06:39:14;;;;;;;97.57;40.22;;;3.10;99.60;;;;;;5026690;28;20041;-77
2022/12/01 06:41:40;;;;;;;104.07;41.35;;;3.10;99.50;;;;;;5017787;28;20029;-77
2022/12/01 06:44:05;;;;;;;93.53;39.22;;;3.10;99.50;;;;;;5027344;28;20424;-78
2022/12/01 06:46:31;;;;;;;108.75;42.63;;;3.10;99.50;;;;;;5026781;28;20030;-78
2022/12/01 06:48:56;;;;;;;93.65;39.67;;;3.10;99.50;;;;;;5025683;28;20337;-78
2022/12/01 06:51:22;;;;;;;107.05;42.05;;;3.10;99.50;;;;;;5028040;28;20112;-77
2022/12/01 06:53:51;;;;;;;98.03;38.78;;;3.10;99.50;;;;;;5023555;28;20415;-76
2022/12/01 06:56:17;;;;;;;104.07;40.20;;;3.10;99.50;;;;;;5024752;28;20038;-75
2022/12/01 06:58:42;;;;;;;98.00;40.90;;;3.10;99.50;;;;;;5029970;28;20482;-75
2022/12/01 07:01:09;;;;;;;86.88;39.28;;;3.10;99.50;;;;;;5027234;28;20033;-76
2022/12/01 07:03:35;;;;;;;100.10;39.08;;;3.10;99.50;;;;;;5030311;28;20120;-75
2022/12/01 07:06:01;;;;;;;99.57;39.92;;;3.00;99.30;;;;;;5029202;28;20213;-76
2022/12/01 07:08:27;;;;;;;96.38;39.15;;;3.00;99.40;;;;;;5026597;28;20411;-75
2022/12/01 07:10:57;;;;;;;91.03;38.90;;;3.00;99.40;;;;;;5014901;28;20030;-76
2022/12/01 07:13:23;;;;;;;95.10;38.15;;;3.00;99.40;;;;;;5023716;28;20065;-75
2022/12/01 07:15:48;;;;;;;95.00;38.67;;;3.00;99.40;;;;;;5026592;28;20060;-76
2022/12/01 07:18:14;;;;;;;102.50;40.30;;;3.00;99.20;;;;;;5028111;28;20051;-75
2022/12/01 07:20:39;;;;;;;98.38;40.22;;;3.00;99.30;;;;;;5019779;28;20480;-74
2022/12/01 07:23:04;;;;;;;99.38;39.63;;;3.00;99.20;;;;;;5026192;28;20081;-74
2022/12/01 07:25:30;;;;;;;107.05;41.15;;;3.00;99.30;;;;;;5026080;28;20087;-74
2022/12/01 07:27:55;;;;;;;103.57;40.45;;;3.00;99.30;;;;;;5021551;28;20094;-74
2022/12/01 07:30:21;;;;;;;99.13;38.67;;;3.00;99.20;;;;;;5037531;28;20126;-74
2022/12/01 07:32:46;;;;;;;95.57;38.78;;;3.00;99.20;;;;;;5026055;28;20029;-74
2022/12/01 07:35:12;;;;;;;99.25;38.13;;;3.00;99.20;;;;;;5026998;28;20036;-74
2022/12/01 07:37:37;;;;;;;99.00;38.60;;;3.00;99.10;;;;;;5027421;28;20021;-77
2022/12/01 07:40:03;;;;;;;98.78;38.95;;;2.90;99.10;;;;;;5024853;28;20449;-76
2022/12/01 07:42:29;;;;;;;106.38;39.22;;;3.00;99.20;;;;;;5021343;28;20025;-74
2022/12/01 07:44:54;;;;;;;98.75;38.67;;;3.00;99.20;;;;;;5026849;28;20036;-75
2022/12/01 07:47:20;;;;;;;107.95;40.75;;;3.00;99.10;;;;;;5026685;28;20063;-74
2022/12/01 07:49:45;;;;;;;98.22;38.78;;;3.00;99.10;;;;;;5033930;28;20333;-77
2022/12/01 07:52:11;;;;;;;112.55;41.13;;;3.00;99.10;;;;;;5028844;28;20030;-78
2022/12/01 07:54:36;;;;;;;111.43;39.00;;;3.00;99.20;;;;;;5036899;28;20033;-79
2022/12/01 07:57:02;;;;;;;110.43;39.95;;;3.00;99.10;;;;;;5023475;28;20060;-80
2022/12/01 07:59:28;;;;;;;108.68;41.42;;;3.10;99.10;;;;;;5025492;28;20163;-80
2022/12/01 08:01:53;;;;;;;102.45;40.28;;;3.00;99.00;;;;;;5020100;28;20039;-79
2022/12/01 08:04:18;;;;;;;93.15;37.67;;;3.00;99.10;;;;;;5027284;28;20030;-75
2022/12/01 08:06:44;;;;;;;107.63;38.22;;;3.00;99.10;;;;;;5032314;28;20033;-82
2022/12/01 08:09:09;;;;;;;101.03;39.75;;;3.00;99.00;;;;;;5030518;28;20029;-82
2022/12/01 08:11:35;;;;;;;98.50;37.05;;;3.10;99.10;;;;;;5021156;28;20464;-72
2022/12/01 08:14:00;;;;;;;91.63;36.40;;;3.00;98.90;;;;;;5029806;28;20032;-72
2022/12/01 08:16:26;;;;;;;90.10;36.10;;;3.00;99.00;;;;;;5036642;28;20080;-77
2022/12/01 08:18:52;;;;;;;88.30;36.95;;;3.00;98.90;;;;;;5033827;28;20148;-78
2022/12/01 08:21:20;;;;;;;90.38;35.28;;;3.00;98.80;;;;;;5031515;28;20314;-78
2022/12/01 08:23:46;;;;;;;84.88;34.92;;;3.00;98.70;;;;;;5026682;28;20053;-77
2022/12/01 08:26:17;;;;;;;93.28;36.40;;;3.00;98.70;;;;;;5019752;28;20037;-78
2022/12/01 08:28:43;;;;;;;85.05;34.80;;;3.00;98.70;;;;;;5017487;28;20095;-77
2022/12/01 08:31:20;;;;;;;84.55;34.92;;;3.00;98.60;;;;;;5010129;28;20051;-80
2022/12/01 08:33:47;;;;;;;93.95;34.80;;;3.00;98.60;;;;;;5020514;28;20033;-78
2022/12/01 08:36:13;;;;;;;83.13;34.25;;;3.10;98.60;;;;;;5026224;28;20095;-78
2022/12/01 08:38:41;;;;;;;87.30;36.67;;;3.10;98.60;;;;;;5028056;28;20430;-83
2022/12/01 08:41:07;;;;;;;86.15;33.22;;;3.10;98.40;;;;;;5023776;28;20021;-81
2022/12/01 08:43:38;;;;;;;81.55;34.45;;;3.10;98.50;;;;;;5020658;28;20025;-79
2022/12/01 08:46:04;;;;;;;95.22;35.15;;;3.10;98.40;;;;;;5025308;28;20025;-78
2022/12/01 08:48:29;;;;;;;92.32;34.13;;;3.10;98.30;;;;;;5030926;28;20372;-80
2022/12/01 08:51:06;;;;;;;98.75;35.88;;;3.10;98.30;;;;;;5026445;28;20021;-79
2022/12/01 08:53:33;;;;;;;87.93;33.45;;;3.00;98.10;;;;;;5024241;28;20102;-81
2022/12/01 08:56:17;;;;;;;98.45;35.17;;;3.00;98.10;;;;;;5017332;28;20080;-83
2022/12/01 08:58:43;;;;;;;83.70;33.85;;;3.10;98.20;;;;;;5025456;28;20048;-80
2022/12/01 09:01:11;;;;;;;86.97;33.83;;;3.10;98.20;;;;;;5022259;28;20067;-80
2022/12/01 09:03:38;;;;;;;87.22;33.67;;;3.10;98.10;;;;;;5031578;28;20018;-81
2022/12/01 09:06:15;;;;;;;93.95;35.83;;;3.10;98.10;;;;;;5032952;28;20037;-83
2022/12/01 09:08:41;;;;;;;95.80;34.17;;;3.10;98.10;;;;;;5026009;28;20148;-83
2022/12/01 09:11:12;;;;;;;102.10;37.13;;;3.20;98.20;;;;;;5020282;28;20061;-79
2022/12/01 09:13:39;;;;;;;92.25;34.10;;;3.10;98.10;;;;;;5019753;28;20069;-83
2022/12/01 09:16:07;;;;;;;93.43;34.30;;;3.10;98.10;;;;;;5028553;28;20025;-84
2022/12/01 09:18:33;;;;;;;101.80;33.28;;;3.00;98.00;;;;;;5023564;28;20037;-80
2022/12/01 09:20:59;;;;;;;96.88;33.88;;;3.00;98.00;;;;;;5018472;28;20448;-79
2022/12/01 09:23:25;;;;;;;97.82;34.65;;;3.10;98.20;;;;;;5021237;28;20144;-78
2022/12/01 09:25:51;;;;;;;110.70;36.60;;;3.10;98.20;;;;;;5028737;28;20029;-80
2022/12/01 09:28:17;;;;;;;103.78;36.00;;;3.00;98.00;;;;;;5023432;28;20021;-80
2022/12/01 09:30:44;;;;;;;96.68;34.97;;;3.00;98.10;;;;;;5017069;28;20037;-79
2022/12/01 09:33:09;;;;;;;101.68;35.67;;;3.10;98.10;;;;;;5026038;28;20040;-80
2022/12/01 09:35:35;;;;;;;100.63;34.78;;;3.10;98.20;;;;;;5024633;28;20033;-78
2022/12/01 09:38:01;;;;;;;101.75;35.00;;;3.10;97.90;;;;;;5029010;28;20127;-79
2022/12/01 09:40:38;;;;;;;96.57;34.75;;;3.10;98.10;;;;;;5028480;28;20030;-76
2022/12/01 09:43:26;;;;;;;87.70;33.70;;;3.10;98.00;;;;;;5024829;28;20171;-76
2022/12/01 09:45:58;;;;;;;96.10;32.92;;;3.10;98.00;;;;;;5016408;28;20033;-76
2022/12/01 09:48:33;;;;;;;95.53;34.42;;;3.10;97.90;;;;;;5019727;28;20041;-74
2022/12/01 09:50:59;;;;;;;95.85;35.53;;;3.10;98.00;;;;;;5025594;28;20446;-74
2022/12/01 09:53:27;;;;;;;96.00;32.78;;;3.00;97.90;;;;;;5020782;28;20040;-74
2022/12/01 09:55:54;;;;;;;92.25;34.20;;;3.00;98.00;;;;;;5023044;28;20033;-75
2022/12/01 09:58:25;;;;;;;101.75;34.47;;;2.90;97.80;;;;;;5027558;28;20068;-74
2022/12/01 10:00:52;;;;;;;110.35;35.58;;;2.90;97.90;;;;;;5028953;28;20029;-72
2022/12/01 10:03:27;;;;;;;86.72;33.80;;;2.90;98.10;;;;;;5018777;28;20025;-79
2022/12/01 10:05:58;;;;;;;90.20;33.30;;;3.00;98.00;;;;;;5019309;28;20018;-76
2022/12/01 10:08:27;;;;;;;94.97;31.83;;;3.00;98.00;;;;;;5022601;28;20041;-78
2022/12/01 10:10:59;;;;;;;96.32;33.13;;;3.10;98.00;;;;;;5021947;28;20051;-76
2022/12/01 10:13:27;;;;;;;86.75;32.50;;;3.10;98.00;;;;;;5019023;28;20041;-78
2022/12/01 10:15:52;;;;;;;90.55;32.72;;;3.20;98.00;;;;;;5016990;28;21391;-78
2022/12/01 10:18:29;;;;;;;89.97;32.90;;;3.30;97.90;;;;;;5025252;28;20045;-71
2022/12/01 10:21:10;;;;;;;96.25;32.08;;;3.30;97.80;;;;;;5022096;28;20024;-73
2022/12/01 10:23:46;;;;;;;90.70;32.47;;;3.40;97.90;;;;;;5018179;28;20334;-73
2022/12/01 10:26:16;;;;;;;95.78;33.45;;;3.20;97.20;;;;;;5016912;28;20107;-74
2022/12/01 10:29:09;;;;;;;86.00;31.88;;;3.20;97.20;;;;;;5016827;28;20304;-74
2022/12/01 10:31:54;;;;;;;90.63;30.35;;;3.30;97.40;;;;;;5017951;28;20080;-72
2022/12/01 10:34:22;;;;;;;80.63;31.27;;;3.40;97.40;;;;;;5023612;28;20671;-71
2022/12/01 10:36:48;;;;;;;73.80;29.58;;;3.40;97.10;;;;;;5019136;28;20033;-72
2022/12/01 10:39:28;;;;;;;75.05;28.92;;;3.40;96.90;;;;;;5026791;28;20605;-73
2022/12/01 10:42:03;;;;;;;71.63;30.07;;;3.30;96.90;;;;;;5022792;28;20347;-73
2022/12/01 10:44:29;;;;;;;69.15;29.45;;;3.10;96.60;;;;;;5025131;28;20037;-72
2022/12/01 10:46:55;;;;;;;76.70;30.33;;;3.10;96.80;;;;;;5037264;28;20025;-71
2022/12/01 10:49:37;;;;;;;67.90;28.02;;;3.10;96.80;;;;;;5029477;28;20390;-73
2022/12/01 10:52:03;;;;;;;69.22;28.55;;;3.10;96.20;;;;;;5018796;28;20196;-68
2022/12/01 10:54:47;;;;;;;73.68;27.85;;;3.10;96.80;;;;;;5012611;28;20045;-70
2022/12/01 10:57:16;;;;;;;72.13;27.42;;;3.10;96.80;;;;;;5021001;28;20036;-73
2022/12/01 10:59:54;;;;;;;86.95;38.25;;;3.10;96.80;;;;;;5022680;28;20626;-74
2022/12/01 11:02:21;;;;;;;79.15;31.52;;;3.10;96.90;;;;;;5029241;28;20034;-73
2022/12/01 11:04:56;;;;;;;79.97;29.60;;;2.90;96.60;;;;;;5020224;28;20021;-74
2022/12/01 11:07:34;;;;;;;77.70;29.35;;;2.90;96.90;;;;;;5024641;28;20072;-77
2022/12/01 11:10:25;;;;;;;85.45;31.88;;;3.00;97.00;;;;;;5019044;28;20136;-76
2022/12/01 11:13:02;;;;;;;76.22;31.17;;;2.90;96.90;;;;;;5021614;28;20089;-75
2022/12/01 11:15:36;;;;;;;72.22;27.73;;;3.00;97.10;;;;;;5030543;28;20117;-77
2022/12/01 11:18:04;;;;;;;153.52;78.22;;;3.00;97.10;;;;;;5020922;28;20038;-79
2022/12/01 11:20:36;;;;;;;103.95;42.83;;;2.90;97.00;;;;;;5022846;28;20037;-78
2022/12/01 11:23:28;;;;;;;114.10;49.42;;;3.00;97.20;;;;;;5013282;28;20069;-78
2022/12/01 11:26:02;;;;;;;139.23;61.78;;;2.90;97.10;;;;;;5017328;28;20032;-77
2022/12/01 11:28:28;;;;;;;147.05;52.92;;;2.90;97.30;;;;;;5020824;28;20414;-78
2022/12/01 11:31:06;;;;;;;109.18;42.03;;;2.90;97.30;;;;;;5029643;28;20119;-76
2022/12/01 11:33:47;;;;;;;80.72;30.77;;;3.00;97.30;;;;;;5024514;28;20346;-77
2022/12/01 11:36:37;;;;;;;86.25;30.15;;;3.00;97.40;;;;;;5019356;28;20514;-78
2022/12/01 11:39:03;;;;;;;88.95;29.00;;;3.00;97.40;;;;;;5022253;28;20455;-75
2022/12/01 11:41:36;;;;;;;89.38;29.67;;;3.00;97.40;;;;;;5030210;28;20119;-76
2022/12/01 11:44:05;;;;;;;93.93;30.83;;;3.00;97.40;;;;;;5028654;28;20021;-71
2022/12/01 11:46:35;;;;;;;97.18;29.00;;;3.00;97.30;;;;;;5023964;28;20053;-76
2022/12/01 11:49:01;;;;;;;89.65;30.05;;;2.90;97.30;;;;;;5025946;28;20418;-77
2022/12/01 11:51:30;;;;;;;101.70;37.95;;;2.90;97.60;;;;;;5023120;28;20121;-70
2022/12/01 11:54:20;;;;;;;88.93;27.55;;;3.00;97.50;;;;;;5024964;28;20346;-80
2022/12/01 11:56:48;;;;;;;89.75;28.50;;;3.00;97.60;;;;;;5036920;28;20100;-79
2022/12/01 11:59:16;;;;;;;92.28;27.92;;;2.90;97.60;;;;;;5022227;28;20048;-75
2022/12/01 12:02:03;;;;;;;87.10;30.17;;;2.90;97.70;;;;;;5026444;28;20054;-74
2022/12/01 12:04:43;;;;;;;85.63;27.38;;;2.90;97.60;;;;;;5029107;28;20033;-70
2022/12/01 12:07:28;;;;;;;92.55;27.35;;;3.00;97.80;;;;;;5020937;28;20322;-79
2022/12/01 12:10:31;;;;;;;90.22;26.65;;;3.00;97.90;;;;;;5031588;28;20071;-75
2022/12/01 12:13:06;;;;;;;86.75;28.70;;;3.00;97.80;;;;;;5021342;28;20377;-75
2022/12/01 12:15:46;;;;;;;80.60;27.95;;;3.00;97.90;;;;;;5029436;28;20175;-77
2022/12/01 12:18:26;;;;;;;95.30;28.30;;;3.00;97.80;;;;;;5028332;28;20047;-76
2022/12/01 12:21:02;;;;;;;68.80;21.92;;;3.00;98.00;;;;;;5031241;28;20037;-74
2022/12/01 12:23:33;;;;;;;81.55;29.52;;;3.00;97.90;;;;;;5032979;28;20084;-74
2022/12/01 12:26:21;;;;;;;78.88;28.15;;;3.00;98.00;;;;;;5018909;28;20102;-72
2022/12/01 12:29:00;;;;;;;68.72;25.48;;;2.90;97.80;;;;;;5017758;28;20145;-76
2022/12/01 12:31:50;;;;;;;74.45;24.35;;;2.80;97.70;;;;;;5021859;28;20195;-73
2022/12/01 12:34:42;;;;;;;59.13;22.70;;;2.80;97.70;;;;;;5030349;28;20079;-73
2022/12/01 12:37:48;;;;;;;68.68;23.83;;;2.70;97.70;;;;;;5026941;28;20434;-74
2022/12/01 12:40:54;;;;;;;70.75;22.13;;;2.60;97.90;;;;;;5024880;28;20404;-76
2022/12/01 12:43:45;;;;;;;60.40;21.52;;;2.70;97.90;;;;;;5022161;28;20151;-78
2022/12/01 12:46:40;;;;;;;62.55;21.20;;;2.60;97.90;;;;;;5025070;28;20059;-74
2022/12/01 12:49:17;;;;;;;72.65;23.80;;;2.60;97.90;;;;;;5016671;28;20414;-71
2022/12/01 12:52:11;;;;;;;70.43;22.27;;;2.60;98.10;;;;;;5015001;28;20136;-72